createdAt,value
2023-02-28T00:00:41.971Z,105.00
2023-02-28T00:03:12.837Z,107.40
2023-02-28T00:05:43.459Z,98.75
2023-02-28T00:08:13.890Z,92.80
2023-02-28T00:10:45.239Z,94.50
2023-02-28T00:13:16.221Z,82.75
2023-02-28T00:15:47.059Z,89.60
2023-02-28T00:18:18.019Z,92.25
2023-02-28T00:20:49.408Z,85.00
2023-02-28T00:23:21.001Z,84.50
2023-02-28T00:25:52.682Z,54.75
2023-02-28T00:28:24.168Z,39.25
2023-02-28T00:30:54.710Z,40.75
2023-02-28T00:33:25.752Z,37.25
2023-02-28T00:35:59.086Z,38.00
2023-02-28T00:38:29.576Z,40.00
2023-02-28T00:40:59.919Z,39.25
2023-02-28T00:43:30.772Z,40.50
2023-02-28T00:46:01.217Z,37.75
2023-02-28T00:48:32.105Z,36.50
2023-02-28T00:51:03.349Z,32.25
2023-02-28T00:53:34.327Z,32.75
2023-02-28T00:56:05.612Z,14.25
2023-02-28T00:58:36.586Z,28.25
2023-02-28T01:01:08.328Z,27.00
2023-02-28T01:03:39.042Z,28.25
2023-02-28T01:06:10.150Z,25.50
2023-02-28T01:08:40.619Z,23.00
2023-02-28T01:11:13.742Z,21.50
2023-02-28T01:13:45.972Z,25.25
2023-02-28T01:16:16.421Z,12.50
2023-02-28T01:18:47.459Z,14.25
2023-02-28T01:21:20.648Z,16.75
2023-02-28T01:23:52.161Z,19.25
2023-02-28T01:26:23.982Z,19.25
2023-02-28T01:28:54.789Z,20.00
2023-02-28T01:31:25.872Z,17.00
2023-02-28T01:33:56.333Z,16.00
2023-02-28T01:36:27.796Z,19.25
2023-02-28T01:38:58.136Z,16.00
2023-02-28T01:41:32.175Z,13.00
2023-02-28T01:44:22.595Z,19.50
2023-02-28T01:46:54.639Z,20.50
2023-02-28T01:49:26.015Z,11.75
2023-02-28T01:51:58.227Z,11.50
2023-02-28T01:54:35.471Z,22.75
2023-02-28T01:57:10.574Z,21.00
2023-02-28T01:59:44.407Z,21.00
2023-02-28T02:02:16.231Z,20.25
2023-02-28T02:04:50.377Z,18.00
2023-02-28T02:07:22.993Z,18.25
2023-02-28T02:10:02.391Z,22.00
2023-02-28T02:12:54.385Z,17.25
2023-02-28T02:15:36.205Z,10.50
2023-02-28T02:18:09.565Z,22.00
2023-02-28T02:20:55.420Z,17.00
2023-02-28T02:23:35.861Z,16.25
2023-02-28T02:26:24.901Z,16.25
2023-02-28T02:29:03.834Z,15.50
2023-02-28T02:31:55.309Z,14.00
2023-02-28T02:34:41.236Z,9.75
2023-02-28T02:37:19.507Z,18.50
2023-02-28T02:40:01.372Z,16.75
2023-02-28T02:42:46.568Z,16.50
2023-02-28T02:45:37.812Z,16.00
2023-02-28T02:48:11.724Z,14.00
2023-02-28T02:50:45.019Z,16.50
2023-02-28T02:53:18.339Z,19.00
2023-02-28T02:55:52.698Z,15.75
2023-02-28T02:58:26.002Z,19.25
2023-02-28T03:00:59.502Z,14.50
2023-02-28T03:03:32.398Z,18.25
2023-02-28T03:06:04.116Z,18.50
2023-02-28T03:08:39.450Z,18.50
2023-02-28T03:11:15.356Z,18.00
2023-02-28T03:14:06.376Z,17.00
2023-02-28T03:17:02.991Z,17.00
2023-02-28T03:20:04.224Z,12.00
2023-02-28T03:22:38.488Z,18.00
2023-02-28T03:25:29.803Z,15.00
2023-02-28T03:28:33.530Z,15.00
2023-02-28T03:34:22.509Z,20.50
2023-02-28T03:36:56.142Z,16.00
2023-02-28T03:39:38.522Z,12.00
2023-02-28T03:42:35.165Z,10.25
2023-02-28T03:48:12.809Z,15.00
2023-02-28T03:50:47.166Z,21.25
2023-02-28T03:53:26.208Z,17.75
2023-02-28T03:55:59.738Z,12.25
2023-02-28T03:58:56.993Z,14.00
2023-02-28T04:01:31.585Z,17.25
2023-02-28T04:04:02.971Z,15.00
2023-02-28T04:06:35.764Z,23.00
2023-02-28T04:09:07.887Z,20.25
2023-02-28T04:11:41.526Z,14.00
2023-02-28T04:14:13.242Z,15.00
2023-02-28T04:16:44.232Z,14.00
2023-02-28T04:19:15.515Z,15.75
2023-02-28T04:21:49.153Z,14.00
2023-02-28T04:24:40.405Z,22.50
2023-02-28T04:27:11.255Z,13.50
2023-02-28T04:29:44.680Z,13.50
2023-02-28T04:32:15.913Z,15.25
2023-02-28T04:34:46.889Z,14.00
2023-02-28T04:37:18.172Z,17.25
2023-02-28T04:39:51.055Z,16.75
2023-02-28T04:42:24.378Z,11.00
2023-02-28T04:44:57.745Z,17.50
2023-02-28T04:47:28.383Z,15.75
2023-02-28T04:50:00.047Z,14.00
2023-02-28T04:52:31.114Z,5.00
2023-02-28T04:55:01.945Z,13.50
2023-02-28T04:57:34.144Z,13.50
2023-02-28T05:00:05.160Z,12.00
2023-02-28T05:02:39.461Z,11.25
2023-02-28T05:05:12.474Z,9.50
2023-02-28T05:07:46.041Z,16.50
2023-02-28T05:10:16.459Z,13.75
2023-02-28T05:12:48.983Z,14.50
2023-02-28T05:15:20.959Z,12.00
2023-02-28T05:17:52.946Z,15.00
2023-02-28T05:20:23.341Z,15.00
2023-02-28T05:22:53.784Z,12.50
2023-02-28T05:25:24.327Z,12.25
2023-02-28T05:27:58.030Z,11.75
2023-02-28T05:30:28.820Z,7.00
2023-02-28T05:32:59.862Z,10.25
2023-02-28T05:35:30.475Z,11.75
2023-02-28T05:38:01.920Z,13.25
2023-02-28T05:40:32.361Z,3.50
2023-02-28T05:43:03.520Z,12.00
2023-02-28T05:45:57.257Z,11.00
2023-02-28T05:48:31.876Z,11.00
2023-02-28T05:51:02.994Z,12.25
2023-02-28T05:53:34.948Z,13.25
2023-02-28T05:56:06.350Z,13.00
2023-02-28T06:01:44.007Z,14.25
2023-02-28T06:04:30.350Z,14.25
2023-02-28T06:06:49.313Z,17.00
2023-02-28T06:09:20.139Z,13.75
2023-02-28T06:11:50.875Z,16.00
2023-02-28T06:14:21.787Z,16.00
2023-02-28T06:16:53.131Z,11.00
2023-02-28T06:19:24.766Z,13.50
2023-02-28T06:21:57.157Z,14.00
2023-02-28T06:24:28.667Z,16.00
2023-02-28T06:26:59.293Z,15.50
2023-02-28T06:29:30.138Z,15.75
2023-02-28T06:32:00.659Z,13.50
2023-02-28T06:34:31.063Z,17.00
2023-02-28T06:37:01.982Z,16.50
2023-02-28T06:39:33.326Z,18.25
2023-02-28T06:42:04.559Z,16.50
2023-02-28T06:44:35.286Z,15.25
2023-02-28T06:47:08.678Z,12.50
2023-02-28T06:49:55.487Z,9.25
2023-02-28T06:52:26.479Z,16.00
2023-02-28T06:54:56.930Z,16.25
2023-02-28T06:57:35.357Z,13.50
2023-02-28T07:00:10.990Z,12.75
2023-02-28T07:02:41.409Z,12.50
2023-02-28T07:05:13.529Z,15.50
2023-02-28T07:07:44.480Z,17.00
2023-02-28T07:10:19.086Z,19.00
2023-02-28T07:12:48.127Z,21.50
2023-02-28T07:15:18.675Z,23.50
2023-02-28T07:17:49.093Z,28.00
2023-02-28T07:20:20.126Z,26.50
2023-02-28T07:22:52.776Z,26.25
2023-02-28T07:28:20.916Z,24.25
2023-02-28T07:30:51.447Z,24.25
2023-02-28T07:33:23.028Z,23.75
2023-02-28T07:35:57.509Z,18.25
2023-02-28T07:38:28.157Z,19.00
2023-02-28T07:40:59.121Z,20.50
2023-02-28T07:43:29.570Z,24.50
2023-02-28T07:46:08.307Z,18.25
2023-02-28T07:48:39.385Z,15.50
2023-02-28T07:51:10.850Z,15.25
2023-02-28T07:53:41.809Z,6.00
2023-02-28T07:56:12.152Z,9.25
2023-02-28T07:58:42.482Z,10.75
2023-02-28T08:01:19.397Z,14.75
2023-02-28T08:03:49.818Z,17.00
2023-02-28T08:06:25.602Z,14.00
2023-02-28T08:08:59.393Z,10.50
2023-02-28T08:11:31.198Z,12.25
2023-02-28T08:14:02.876Z,9.25
2023-02-28T08:16:35.743Z,7.75
2023-02-28T08:19:09.156Z,9.50
2023-02-28T08:21:39.733Z,10.50
2023-02-28T08:24:11.440Z,0.00
2023-02-28T08:26:43.279Z,5.25
2023-02-28T08:29:14.982Z,6.00
2023-02-28T08:31:45.619Z,9.25
2023-02-28T08:34:17.415Z,8.00
2023-02-28T08:36:51.144Z,9.00
2023-02-28T08:39:22.211Z,6.00
2023-02-28T08:42:02.110Z,9.25
2023-02-28T08:44:29.640Z,8.00
2023-02-28T08:47:03.378Z,7.00
2023-02-28T08:49:35.928Z,7.00
2023-02-28T08:52:07.974Z,9.25
2023-02-28T08:54:43.238Z,6.50
2023-02-28T08:57:17.115Z,10.50
2023-02-28T08:59:58.335Z,7.00
2023-02-28T09:02:39.437Z,10.00
2023-02-28T09:05:09.592Z,12.75
2023-02-28T09:07:40.711Z,9.25
2023-02-28T09:10:12.146Z,10.00
2023-02-28T09:12:42.637Z,9.00
2023-02-28T09:15:20.920Z,11.00
2023-02-28T09:18:04.120Z,8.75
2023-02-28T09:20:35.344Z,6.00
2023-02-28T09:23:05.694Z,8.00
2023-02-28T09:25:36.919Z,6.50
2023-02-28T09:28:07.835Z,6.00
2023-02-28T09:30:38.672Z,8.00
2023-02-28T09:33:21.115Z,9.25
2023-02-28T09:35:52.851Z,8.75
2023-02-28T09:38:23.850Z,8.50
2023-02-28T09:41:15.246Z,9.75
2023-02-28T09:46:49.712Z,7.25
2023-02-28T09:49:23.295Z,10.00
2023-02-28T09:52:08.772Z,9.25
2023-02-28T09:54:40.401Z,10.00
2023-02-28T09:57:32.687Z,7.75
2023-02-28T10:00:19.103Z,8.25
2023-02-28T10:02:56.149Z,7.75
2023-02-28T10:05:30.045Z,7.25
2023-02-28T10:08:39.661Z,3.75
2023-02-28T10:11:14.892Z,6.50
2023-02-28T10:13:49.184Z,7.25
2023-02-28T10:16:25.225Z,8.00
2023-02-28T10:19:10.103Z,10.25
2023-02-28T10:21:52.773Z,7.25
2023-02-28T10:24:28.555Z,7.25
2023-02-28T10:27:05.166Z,8.50
2023-02-28T10:29:35.959Z,6.00
2023-02-28T10:32:07.202Z,8.25
2023-02-28T10:34:39.031Z,9.00
2023-02-28T10:37:10.417Z,8.00
2023-02-28T10:39:46.623Z,7.50
2023-02-28T10:42:26.107Z,7.25
2023-02-28T10:45:17.576Z,8.00
2023-02-28T10:48:00.197Z,9.25
2023-02-28T10:50:54.757Z,5.50
2023-02-28T10:53:36.164Z,9.00
2023-02-28T10:56:14.506Z,8.00
2023-02-28T10:58:56.067Z,8.75
2023-02-28T11:01:35.598Z,4.50
2023-02-28T11:04:32.740Z,8.00
2023-02-28T11:07:27.803Z,4.00
2023-02-28T11:10:02.202Z,6.00
2023-02-28T11:12:50.863Z,4.00
2023-02-28T11:15:30.728Z,5.25
2023-02-28T11:18:04.135Z,5.00
2023-02-28T11:20:36.918Z,4.25
2023-02-28T11:23:10.409Z,5.50
2023-02-28T11:25:46.422Z,5.00
2023-02-28T11:28:31.981Z,6.00
2023-02-28T11:31:25.357Z,8.00
2023-02-28T11:33:55.435Z,6.00
2023-02-28T11:36:32.175Z,7.50
2023-02-28T11:39:05.818Z,6.50
2023-02-28T11:41:42.470Z,7.25
2023-02-28T11:44:42.528Z,6.00
2023-02-28T11:47:19.992Z,5.00
2023-02-28T11:49:59.348Z,6.50
2023-02-28T11:52:38.813Z,7.00
2023-02-28T11:55:31.870Z,7.00
2023-02-28T11:58:08.474Z,8.00
2023-02-28T12:01:04.221Z,8.75
2023-02-28T12:03:47.511Z,7.00
2023-02-28T12:06:23.265Z,14.50
2023-02-28T12:08:56.694Z,9.00
2023-02-28T12:11:53.599Z,4.25
2023-02-28T12:14:29.927Z,5.00
2023-02-28T12:17:24.923Z,5.75
2023-02-28T12:20:13.958Z,6.00
2023-02-28T12:22:51.497Z,8.25
2023-02-28T12:25:52.260Z,10.00
2023-02-28T12:28:34.191Z,7.75
2023-02-28T12:31:10.260Z,8.00
2023-02-28T12:33:44.162Z,8.25
2023-02-28T12:36:18.508Z,7.00
2023-02-28T12:39:01.372Z,5.50
2023-02-28T12:41:51.770Z,6.50
2023-02-28T12:44:35.347Z,4.00
2023-02-28T12:47:08.623Z,9.25
2023-02-28T12:50:04.874Z,5.00
2023-02-28T12:52:40.971Z,5.75
2023-02-28T12:55:38.175Z,7.50
2023-02-28T12:58:46.084Z,9.00
2023-02-28T13:01:33.919Z,5.25
2023-02-28T13:04:29.669Z,6.50
2023-02-28T13:07:05.812Z,6.50
2023-02-28T13:09:42.937Z,5.25
2023-02-28T13:12:17.569Z,5.00
2023-02-28T13:14:48.640Z,5.00
2023-02-28T13:17:29.366Z,4.00
2023-02-28T13:20:01.474Z,5.00
2023-02-28T13:22:41.039Z,9.00
2023-02-28T13:25:36.047Z,5.00
2023-02-28T13:28:14.723Z,6.00
2023-02-28T13:30:57.332Z,8.00
2023-02-28T13:33:33.253Z,5.75
2023-02-28T13:36:17.954Z,5.75
2023-02-28T13:38:56.542Z,8.00
2023-02-28T13:41:47.090Z,9.00
2023-02-28T13:44:23.757Z,5.00
2023-02-28T13:46:56.950Z,9.00
2023-02-28T13:49:33.565Z,10.25
2023-02-28T13:52:10.430Z,7.50
2023-02-28T13:54:55.638Z,4.50
2023-02-28T13:57:45.934Z,4.25
2023-02-28T14:00:41.259Z,10.25
2023-02-28T14:03:20.434Z,8.00
2023-02-28T14:06:11.653Z,8.25
2023-02-28T14:08:44.919Z,8.25
2023-02-28T14:11:36.592Z,8.50
2023-02-28T14:14:29.950Z,8.50
2023-02-28T14:17:00.509Z,10.50
2023-02-28T14:19:35.073Z,9.75
2023-02-28T14:22:08.838Z,8.25
2023-02-28T14:24:51.152Z,12.00
2023-02-28T14:27:41.520Z,12.00
2023-02-28T14:30:36.684Z,11.25
2023-02-28T14:33:23.888Z,12.75
2023-02-28T14:36:15.092Z,18.75
2023-02-28T14:38:51.289Z,16.75
2023-02-28T14:41:27.427Z,14.75
2023-02-28T14:44:07.469Z,16.50
2023-02-28T14:46:42.895Z,18.00
2023-02-28T14:49:22.119Z,15.00
2023-02-28T14:52:04.714Z,7.00
2023-02-28T14:54:36.135Z,15.00
2023-02-28T14:57:07.232Z,10.50
2023-02-28T14:59:38.070Z,9.50
2023-02-28T15:02:27.390Z,10.75
2023-02-28T15:05:03.847Z,11.75
2023-02-28T15:07:34.866Z,11.00
2023-02-28T15:10:25.054Z,11.25
2023-02-28T15:16:08.032Z,9.00
2023-02-28T15:18:53.233Z,15.00
2023-02-28T15:21:32.024Z,12.50
2023-02-28T15:24:24.637Z,13.25
2023-02-28T15:27:01.660Z,13.75
2023-02-28T15:29:35.073Z,15.50
2023-02-28T15:32:10.497Z,14.25
2023-02-28T15:34:44.896Z,13.75
2023-02-28T15:37:34.297Z,15.00
2023-02-28T15:40:11.045Z,11.25
2023-02-28T15:42:42.050Z,17.50
2023-02-28T15:45:39.851Z,17.00
2023-02-28T15:48:41.392Z,10.25
2023-02-28T15:51:12.027Z,19.00
2023-02-28T15:54:01.824Z,15.50
2023-02-28T15:56:35.350Z,13.75
2023-02-28T15:59:08.134Z,16.50
2023-02-28T16:01:40.465Z,17.00
2023-02-28T16:04:19.620Z,16.00
2023-02-28T16:07:06.308Z,14.00
2023-02-28T16:09:36.920Z,20.00
2023-02-28T16:12:09.153Z,18.50
2023-02-28T16:14:50.439Z,22.50
2023-02-28T16:20:35.017Z,15.50
2023-02-28T16:23:15.530Z,18.50
2023-02-28T16:25:48.952Z,17.50
2023-02-28T16:28:31.364Z,18.75
2023-02-28T16:31:04.795Z,18.50
2023-02-28T16:33:38.004Z,17.75
2023-02-28T16:36:10.225Z,12.00
2023-02-28T16:38:40.982Z,19.50
2023-02-28T16:44:07.720Z,22.25
2023-02-28T16:46:38.761Z,16.25
2023-02-28T16:49:12.296Z,21.00
2023-02-28T16:51:44.409Z,20.75
2023-02-28T16:54:15.080Z,20.50
2023-02-28T16:56:48.230Z,21.50
2023-02-28T16:59:31.116Z,17.75
2023-02-28T17:02:01.755Z,18.25
2023-02-28T17:04:35.432Z,20.25
2023-02-28T17:07:11.471Z,17.00
2023-02-28T17:09:45.455Z,12.25
2023-02-28T17:12:15.633Z,11.75
2023-02-28T17:15:23.691Z,8.50
2023-02-28T17:17:52.790Z,12.25
2023-02-28T17:20:26.401Z,10.00
2023-02-28T17:23:03.205Z,8.75
2023-02-28T17:25:34.385Z,16.50
2023-02-28T17:28:05.612Z,10.00
2023-02-28T17:37:19.450Z,19.25
2023-02-28T17:39:10.747Z,14.00
2023-02-28T17:41:48.254Z,8.75
2023-02-28T17:44:23.092Z,9.75
2023-02-28T17:47:01.605Z,13.25
2023-02-28T17:49:48.618Z,13.00
2023-02-28T17:52:27.095Z,11.50
2023-02-28T17:55:00.017Z,10.25
2023-02-28T17:57:32.107Z,7.25
2023-02-28T18:00:04.820Z,10.75
2023-02-28T18:02:59.996Z,9.00
2023-02-28T18:05:36.549Z,18.75
2023-02-28T18:10:56.116Z,15.25
2023-02-28T18:13:29.162Z,12.75
2023-02-28T18:16:07.136Z,26.75
2023-02-28T18:18:45.833Z,26.50
2023-02-28T18:21:21.746Z,26.50
2023-02-28T18:23:58.811Z,24.50
2023-02-28T18:35:44.730Z,27.50
2023-02-28T18:38:19.802Z,24.25
2023-02-28T18:40:56.209Z,29.00
2023-02-28T18:43:30.511Z,29.50
2023-02-28T18:48:57.081Z,29.25
2023-02-28T18:51:31.737Z,28.25
2023-02-28T18:54:06.408Z,26.00
2023-02-28T18:56:40.662Z,18.00
2023-02-28T18:59:12.975Z,25.50
2023-02-28T19:01:46.557Z,23.25
2023-02-28T19:04:16.991Z,24.25
2023-02-28T19:06:53.462Z,27.75
2023-02-28T19:09:31.142Z,20.75
2023-02-28T19:12:05.104Z,22.25
2023-02-28T19:20:40.263Z,23.50
2023-02-28T19:23:14.971Z,21.25
2023-02-28T19:25:53.164Z,30.25
2023-02-28T19:28:51.363Z,32.00
2023-02-28T19:31:52.553Z,33.50
2023-02-28T19:34:27.793Z,36.25
2023-02-28T19:40:10.562Z,29.50
2023-02-28T19:42:56.556Z,29.00
2023-02-28T19:48:25.655Z,25.00
2023-02-28T19:51:02.032Z,31.25
2023-02-28T19:53:36.725Z,35.25
2023-02-28T19:56:26.060Z,30.50
2023-02-28T19:59:00.659Z,31.75
2023-02-28T20:01:32.943Z,32.50
2023-02-28T20:04:09.273Z,30.50
2023-02-28T20:06:41.819Z,24.75
2023-02-28T20:09:15.797Z,28.25
2023-02-28T20:11:48.973Z,41.25
2023-02-28T20:14:31.261Z,40.50
2023-02-28T20:17:04.997Z,33.75
2023-02-28T20:19:40.783Z,30.00
2023-02-28T20:22:17.401Z,29.50
2023-02-28T20:24:54.435Z,40.25
2023-02-28T20:27:31.787Z,33.50
2023-02-28T20:30:07.230Z,34.50
2023-02-28T20:32:39.916Z,30.25
2023-02-28T20:35:25.455Z,39.50
2023-02-28T20:38:01.868Z,41.50
2023-02-28T20:40:33.414Z,33.75
2023-02-28T20:43:08.206Z,32.25
2023-02-28T20:46:23.204Z,29.25
2023-02-28T20:49:02.780Z,34.25
2023-02-28T20:51:44.133Z,28.75
2023-02-28T20:57:12.886Z,43.75
2023-02-28T20:59:49.051Z,42.75
2023-02-28T21:02:52.199Z,41.50
2023-02-28T21:04:54.799Z,49.00
2023-02-28T21:08:04.665Z,39.25
2023-02-28T21:10:42.143Z,40.50
2023-02-28T21:13:22.981Z,37.75
2023-02-28T21:16:16.316Z,35.75
2023-02-28T21:18:48.229Z,43.50
2023-02-28T21:21:21.352Z,43.75
2023-02-28T21:23:54.476Z,24.00
2023-02-28T21:26:26.172Z,41.25
2023-02-28T21:29:01.244Z,18.75
2023-02-28T21:31:38.463Z,21.50
2023-02-28T21:34:09.164Z,21.00
2023-02-28T21:36:43.175Z,16.75
2023-02-28T21:39:19.814Z,10.75
2023-02-28T21:41:53.075Z,12.00
2023-02-28T21:44:26.520Z,12.00
2023-02-28T21:46:57.582Z,11.00
2023-02-28T21:49:30.355Z,11.00
2023-02-28T21:52:02.636Z,8.00
2023-02-28T21:54:36.218Z,9.50
2023-02-28T21:57:06.799Z,11.50
2023-02-28T21:59:38.526Z,11.00
2023-02-28T22:02:11.348Z,10.75
2023-02-28T22:04:41.672Z,13.00
2023-02-28T22:07:12.509Z,13.00
2023-02-28T22:09:57.083Z,10.75
2023-02-28T22:12:30.409Z,11.25
2023-02-28T22:15:00.705Z,11.50
2023-02-28T22:17:34.973Z,11.50
2023-02-28T22:20:06.072Z,9.50
2023-02-28T22:22:39.574Z,11.50
2023-02-28T22:25:10.443Z,13.75
2023-02-28T22:30:39.225Z,15.25
2023-02-28T22:33:11.189Z,13.50
2023-02-28T22:35:42.383Z,13.75
2023-02-28T22:38:22.777Z,18.25
2023-02-28T22:41:02.397Z,2.00
2023-02-28T22:43:37.689Z,15.00
2023-02-28T22:46:10.889Z,16.25
2023-02-28T22:48:41.879Z,11.50
2023-02-28T22:51:15.230Z,13.00
2023-02-28T22:53:51.828Z,13.00
2023-02-28T22:56:27.318Z,10.25
2023-02-28T22:59:02.274Z,10.25
2023-02-28T23:01:41.867Z,13.00
2023-02-28T23:04:18.390Z,13.00
2023-02-28T23:06:48.631Z,10.50
2023-02-28T23:09:23.338Z,11.00
2023-02-28T23:15:12.491Z,10.00
2023-02-28T23:17:45.941Z,4.50
2023-02-28T23:20:19.337Z,10.00
2023-02-28T23:22:49.792Z,11.00
2023-02-28T23:25:21.651Z,10.75
2023-02-28T23:27:51.936Z,9.50
2023-02-28T23:30:25.553Z,11.50
2023-02-28T23:32:55.818Z,7.00
2023-02-28T23:35:26.861Z,11.00
2023-02-28T23:37:58.203Z,9.50
2023-02-28T23:40:28.937Z,9.00
2023-02-28T23:42:59.972Z,8.00
2023-02-28T23:45:30.414Z,11.00
2023-02-28T23:48:01.820Z,9.00
2023-02-28T23:50:32.448Z,11.25
2023-02-28T23:53:02.901Z,9.50
2023-02-28T23:55:33.319Z,7.75
2023-02-28T23:58:03.781Z,9.50
